• Join FlightAware (Why Join?)
  • Login
  • US Flag 
05:12AM EDT


 

Airport Tracker/Info


-or-


 

Live Flight TrackerFlight Track Log ✈ NKS843 ✈ 04-May-2013 ✈ KORD - KMYR

Flight Track Log - Related Links

Times and Time Zones

All times are in EDT time to prevent confusion due to time zone crossing. See the NKS843 flight status page for this flight to view local times or setup timezone preferences in your user account.

Time Position Orientation Groundspeed Altitude Reporting Facility
EDT Latitude Longitude Course Direction KTS MPH feet Rate Location/Type
12:04PM 41.9840 -87.8870 90° East 151 174 1,100  Level FlightAware
12:05PM 41.9790 -87.8560 102° East 159 183 2,200 1,800 Climbing FlightAware
12:05PM 41.9630 -87.8360 137° Southeast 192 221 2,900 1,560 Climbing FlightAware
12:06PM 41.9440 -87.8140 139° Southeast 233 268 3,400 2,040 Climbing FlightAware
12:06PM 41.9120 -87.7950 156° South 268 308 4,800 3,240 Climbing FlightAware
12:07PM 41.8830 -87.8060 196° South 273 314 6,400 3,900 Climbing FlightAware
12:07PM 41.8650 -87.8160 202° Southwest 272 313 7,400 3,840 Climbing FlightAware
12:08PM 41.8280 -87.8350 201° Southwest 271 312 9,300 3,000 Climbing FlightAware
12:08PM 41.7890 -87.8490 195° South 280 322 10,700 2,820 Climbing FlightAware
12:08PM 41.7620 -87.8400 166° South 273 314 11,900 3,300 Climbing FlightAware
12:09PM 41.7190 -87.8070 150° Southeast 270 311 14,000 3,000 Climbing FlightAware
12:10PM 41.6710 -87.7660 147° Southeast 270 311 16,200 2,460 Climbing FlightAware
12:11PM 41.6270 -87.7320 150° Southeast 286 329 17,500 1,920 Climbing FlightAware
12:11PM 41.5800 -87.6950 150° Southeast 298 343 18,800 1,920 Climbing FlightAware
12:12PM 41.5260 -87.6520 149° Southeast 309 356 20,300 1,860 Climbing FlightAware
12:13PM 41.4760 -87.6130 150° Southeast 319 367 21,500 1,800 Climbing FlightAware
12:13PM 41.4130 -87.5760 156° South 330 380 22,900 1,680 Climbing FlightAware
12:14PM 41.3510 -87.5590 168° South 345 397 23,900 1,020 Climbing FlightAware
12:15PM 41.2780 -87.5470 173° South 376 433 24,400 660 Climbing FlightAware
12:15PM 41.2080 -87.5340 172° South 398 458 24,900 1,200 Climbing FlightAware
12:16PM 41.1340 -87.5150 169° South 400 460 26,000 1,440 Climbing FlightAware
12:17PM 41.0490 -87.4920 168° South 410 472 27,000 1,320 Climbing FlightAware
12:18PM 40.9760 -87.4730 169° South 411 473 27,900 1,320 Climbing FlightAware
12:18PM 40.8930 -87.4510 169° South 417 480 28,900 1,080 Climbing FlightAware
12:19PM 40.8160 -87.4300 168° South 426 490 29,500 1,080 Climbing FlightAware
12:20PM 40.7370 -87.4230 176° South 431 496 30,400 1,380 Climbing FlightAware
12:20PM 40.6460 -87.4240 180° South 429 494 31,500 1,500 Climbing FlightAware
12:21PM 40.5430 -87.4080 173° South 409 471 32,900 1,320 Climbing FlightAware
12:22PM 40.4800 -87.3570 148° Southeast 406 467 33,600 1,080 Climbing FlightAware
12:23PM 40.4110 -87.2890 143° Southeast 403 464 34,500 1,200 Climbing FlightAware
12:23PM 40.3630 -87.2130 130° Southeast 400 460 35,300 1,020 Climbing FlightAware
12:24PM 40.3220 -87.1400 126° Southeast 399 459 35,900 480 Climbing FlightAware
12:25PM 40.2720 -87.0510 126° Southeast 393 452 36,000 60 Climbing FlightAware
12:25PM 40.2340 -86.9860 127° Southeast 396 456 36,000  Level FlightAware
12:26PM 40.1770 -86.8860 127° Southeast 397 457 36,000 300 Level FlightAware
12:27PM 40.1350 -86.8120 127° Southeast 393 452 36,500 660 Climbing FlightAware
12:28PM 40.0870 -86.7280 127° Southeast 390 449 37,000 300 Climbing FlightAware
12:28PM 40.0430 -86.6510 127° Southeast 392 451 37,000  Level FlightAware
12:29PM 40.0000 -86.5750 126° Southeast 395 455 37,000  Level FlightAware
12:30PM 39.9500 -86.4880 127° Southeast 395 455 37,000  Level FlightAware
12:30PM 39.9060 -86.4120 127° Southeast 393 452 37,000  Level FlightAware
12:31PM 39.8600 -86.3330 127° Southeast 391 450 37,000  Level FlightAware
12:32PM 39.8140 -86.2540 127° Southeast 390 449 37,000  Level FlightAware
12:32PM 39.7720 -86.1810 127° Southeast 391 450 37,000  Level FlightAware
12:33PM 39.7200 -86.0930 128° Southeast 393 452 37,000  Level FlightAware
12:34PM 39.6640 -85.9970 127° Southeast 394 453 37,000  Level FlightAware
12:35PM 39.6040 -85.8940 127° Southeast 394 453 37,000  Level FlightAware
12:36PM 39.5550 -85.8110 127° Southeast 394 453 37,000  Level FlightAware
12:36PM 39.5080 -85.7310 127° Southeast 394 453 37,000  Level FlightAware
12:37PM 39.4650 -85.6600 128° Southeast 393 452 37,000  Level FlightAware
12:38PM 39.4150 -85.5740 127° Southeast 393 452 37,000  Level FlightAware
12:39PM 39.3640 -85.4880 127° Southeast 393 452 37,000  Level FlightAware
12:39PM 39.3210 -85.4160 128° Southeast 393 452 37,000  Level FlightAware
12:40PM 39.2750 -85.3390 128° Southeast 394 453 37,000  Level FlightAware
12:41PM 39.2260 -85.2580 128° Southeast 393 452 37,000  Level FlightAware
12:41PM 39.1780 -85.1790 128° Southeast 393 452 37,000  Level FlightAware
12:42PM 39.1420 -85.1180 127° Southeast 393 452 37,000  Level FlightAware
12:43PM 39.0900 -85.0320 128° Southeast 392 451 37,000  Level FlightAware
12:43PM 39.0490 -84.9630 127° Southeast 392 451 37,000  Level FlightAware
12:44PM 38.9900 -84.8670 128° Southeast 392 451 37,000  Level FlightAware
12:45PM 38.9450 -84.7930 128° Southeast 392 451 37,000  Level FlightAware
12:46PM 38.8960 -84.7130 128° Southeast 393 452 37,000  Level FlightAware
12:46PM 38.8530 -84.6430 128° Southeast 395 455 37,000  Level FlightAware
12:47PM 38.8060 -84.5650 128° Southeast 395 455 37,000  Level FlightAware
12:48PM 38.7680 -84.5030 128° Southeast 395 455 37,000  Level FlightAware
12:48PM 38.7220 -84.4280 128° Southeast 395 455 37,000  Level FlightAware
12:49PM 38.6840 -84.3650 128° Southeast 395 455 37,000  Level FlightAware
12:50PM 38.6130 -84.2610 131° Southeast 396 456 37,000  Level FlightAware
12:51PM 38.5450 -84.1870 140° Southeast 396 456 37,000  Level FlightAware
12:52PM 38.4610 -84.0880 137° Southeast 394 453 37,000  Level FlightAware
12:52PM 38.4040 -84.0220 138° Southeast 394 453 37,000  Level FlightAware
12:53PM 38.3430 -83.9500 137° Southeast 394 453 37,000  Level FlightAware
12:54PM 38.2820 -83.8780 137° Southeast 395 455 37,000  Level FlightAware
12:55PM 38.2220 -83.8084 138° Southeast 396 456 37,000  Level FlightAware ADS-B
12:55PM 38.1560 -83.7320 138° Southeast 395 455 37,000  Level FlightAware
12:56PM 38.1345 -83.7061 137° Southeast 396 456 37,000  Level FlightAware ADS-B
12:56PM 38.0880 -83.6510 137° Southeast 395 455 37,000  Level FlightAware
12:57PM 38.0210 -83.5750 138° Southeast 396 456 37,000  Level FlightAware
12:58PM 37.9670 -83.5130 138° Southeast 397 457 37,000  Level FlightAware
12:58PM 37.9060 -83.4420 137° Southeast 397 457 37,000  Level FlightAware
12:59PM 37.8610 -83.3900 138° Southeast 397 457 37,000  Level FlightAware
12:59PM 37.8197 -83.3435 138° Southeast 398 458 37,000  Level FlightAware ADS-B
01:00PM 37.7777 -83.2950 138° Southeast 399 459 37,000  Level FlightAware ADS-B
01:01PM 37.7336 -83.2447 138° Southeast 399 459 37,000  Level FlightAware ADS-B
01:01PM 37.6916 -83.1967 138° Southeast 398 458 37,000  Level FlightAware ADS-B
01:03PM 37.5312 -83.0137 138° Southeast 399 459 37,000  Level FlightAware ADS-B
01:04PM 37.4870 -82.9636 138° Southeast 399 459 37,000  Level FlightAware ADS-B
01:04PM 37.4443 -82.9155 138° Southeast 399 459 37,000  Level FlightAware ADS-B
01:05PM 37.3983 -82.8634 138° Southeast 401 461 37,000  Level FlightAware ADS-B
01:05PM 37.3428 -82.8008 138° Southeast 402 463 37,000  Level FlightAware ADS-B
01:06PM 37.2999 -82.7525 138° Southeast 402 463 37,000  Level FlightAware ADS-B
01:06PM 37.2582 -82.7055 138° Southeast 401 461 37,000  Level FlightAware ADS-B
01:07PM 37.2163 -82.6584 138° Southeast 402 463 37,000  Level FlightAware ADS-B
01:07PM 37.1680 -82.6045 138° Southeast 402 463 37,000  Level FlightAware ADS-B
01:08PM 37.1214 -82.5526 138° Southeast 401 461 37,000  Level FlightAware ADS-B
01:08PM 37.0784 -82.5046 138° Southeast 402 463 37,000  Level FlightAware ADS-B
01:09PM 37.0327 -82.4534 138° Southeast 403 464 37,000  Level FlightAware ADS-B
01:10PM 36.9893 -82.4049 138° Southeast 404 465 37,000  Level FlightAware ADS-B
01:10PM 36.9453 -82.3560 138° Southeast 406 467 37,000  Level FlightAware ADS-B
01:11PM 36.9020 -82.3080 138° Southeast 407 468 37,000  Level FlightAware ADS-B
01:11PM 36.8575 -82.2587 138° Southeast 407 468 37,000  Level FlightAware ADS-B
01:12PM 36.8018 -82.1972 139° Southeast 406 467 37,000 -420 Level FlightAware ADS-B
01:12PM 36.7578 -82.1488 139° Southeast 402 463 36,500 -900 Descending FlightAware ADS-B
01:13PM 36.7146 -82.1012 139° Southeast 404 465 36,100 -900 Descending FlightAware ADS-B
01:13PM 36.6684 -82.0503 139° Southeast 407 468 35,600 -960 Descending FlightAware ADS-B
01:14PM 36.6253 -82.0030 139° Southeast 408 470 35,100 -600 Descending FlightAware ADS-B
01:14PM 36.5821 -81.9556 139° Southeast 410 472 35,000 -120 Descending FlightAware ADS-B
01:15PM 36.5385 -81.9077 139° Southeast 407 468 35,000  Level FlightAware ADS-B
01:15PM 36.4952 -81.8601 139° Southeast 408 470 35,000  Level FlightAware ADS-B
01:16PM 36.4516 -81.8126 139° Southeast 412 474 35,000 -120 Level FlightAware ADS-B
01:16PM 36.4082 -81.7652 139° Southeast 413 475 34,900 -540 Descending FlightAware ADS-B
01:17PM 36.3648 -81.7180 139° Southeast 408 470 34,500 -900 Descending FlightAware ADS-B
01:17PM 36.3172 -81.6662 139° Southeast 409 471 34,000 -960 Descending FlightAware ADS-B
01:18PM 36.2714 -81.6166 139° Southeast 411 473 33,500 -960 Descending FlightAware ADS-B
01:19PM 36.2272 -81.5687 139° Southeast 411 473 33,000 -480 Descending FlightAware ADS-B
01:19PM 36.1806 -81.5184 139° Southeast 413 475 33,000  Level FlightAware ADS-B
01:20PM 36.1257 -81.4592 139° Southeast 412 474 33,000  Level FlightAware ADS-B
01:20PM 36.0824 -81.4126 139° Southeast 412 474 33,000  Level FlightAware ADS-B
01:21PM 36.0375 -81.3642 139° Southeast 412 474 33,000  Level FlightAware ADS-B
01:22PM 35.9568 -81.2776 139° Southeast 413 475 33,000  Level FlightAware ADS-B
01:22PM 35.9140 -81.2320 139° Southeast 415 478 33,000  Level FlightAware
01:23PM 35.8490 -81.1620 139° Southeast 416 479 33,000  Level FlightAware
01:24PM 35.8010 -81.1110 139° Southeast 416 479 33,000  Level FlightAware
01:24PM 35.7300 -81.0360 139° Southeast 416 479 33,000 -300 Level FlightAware
01:25PM 35.6820 -80.9840 139° Southeast 413 475 32,600 -900 Descending FlightAware
01:26PM 35.6100 -80.9080 139° Southeast 411 473 31,800 -960 Descending FlightAware
01:26PM 35.5470 -80.8410 139° Southeast 406 467 31,100 -660 Descending FlightAware
01:27PM 35.4910 -80.7820 139° Southeast 405 466 30,900 -1,320 Descending FlightAware
01:28PM 35.4130 -80.7000 139° Southeast 399 459 29,100 -2,040 Descending FlightAware
01:29PM 35.3560 -80.6400 139° Southeast 394 453 27,500 -1,500 Descending FlightAware
01:29PM 35.2960 -80.5770 139° Southeast 398 458 27,000 -360 Descending FlightAware
01:30PM 35.2330 -80.5120 140° Southeast 399 459 27,000  Level FlightAware
01:31PM 35.1770 -80.4530 139° Southeast 397 457 27,000  Level FlightAware
01:31PM 35.1510 -80.4260 140° Southeast 395 455 27,000  Level FlightAware
01:32PM 35.0720 -80.3430 139° Southeast 395 455 27,000  Level FlightAware
01:33PM 35.0040 -80.2720 139° Southeast 391 450 27,000  Level FlightAware
01:34PM 34.9580 -80.2250 140° Southeast 391 450 27,000  Level FlightAware
01:34PM 34.8860 -80.1500 139° Southeast 393 452 27,000  Level FlightAware
01:35PM 34.8300 -80.0930 140° Southeast 395 455 27,000  Level FlightAware
01:36PM 34.7760 -80.0370 140° Southeast 395 455 27,000 -1,320 Level FlightAware
01:37PM 34.6740 -79.9320 140° Southeast 393 452 24,500 -1,620 Descending FlightAware
01:38PM 34.6740 -79.9320 140° Southeast 390 449 24,000 -360 Descending FlightAware
01:38PM 34.5570 -79.8130 140° Southeast 393 452 24,000 -900 Level FlightAware
01:39PM 34.5020 -79.7560 139° Southeast 387 445 22,800 -2,040 Descending FlightAware
01:40PM 34.4420 -79.6950 140° Southeast 383 441 21,300 -2,220 Descending FlightAware
01:40PM 34.3860 -79.6380 140° Southeast 381 438 19,700 -2,520 Descending FlightAware
01:41PM 34.3270 -79.5780 140° Southeast 389 448 17,800 -2,700 Descending FlightAware
01:42PM 34.2730 -79.5230 140° Southeast 368 423 16,100 -2,160 Descending FlightAware
01:43PM 34.2160 -79.4660 140° Southeast 347 399 14,800 -1,860 Descending FlightAware
01:43PM 34.1670 -79.4160 140° Southeast 337 388 13,500 -2,100 Descending FlightAware
01:44PM 34.1140 -79.3630 140° Southeast 331 381 11,900 -1,860 Descending FlightAware
01:45PM 34.0690 -79.3170 140° Southeast 316 364 10,900 -720 Descending FlightAware
01:45PM 34.0180 -79.2660 140° Southeast 312 359 10,900  Level FlightAware
01:46PM 33.9780 -79.2250 140° Southeast 311 358 10,900 -600 Level FlightAware
01:47PM 33.9200 -79.1680 141° Southeast 259 298 10,000 -1,500 Descending FlightAware
01:47PM 33.8930 -79.1410 140° Southeast 258 297 8,800 -1,320 Descending FlightAware
01:48PM 33.8710 -79.1190 140° Southeast 258 297 8,800 -2,280 Level FlightAware
01:48PM 33.8510 -79.1140 168° South 256 295 7,300 -4,080 Descending FlightAware
01:49PM 33.8200 -79.0980 157° South 252 290 6,100 -2,400 Descending FlightAware
01:49PM 33.8080 -79.0910 154° Southeast 251 289 5,700 -2,280 Descending FlightAware
01:49PM 33.7730 -79.0730 157° South 249 287 4,400 -2,040 Descending FlightAware
01:50PM 33.7540 -79.0630 156° South 241 277 4,000 -540 Descending FlightAware
01:52PM 33.6470 -79.0120 158° South 215 247 3,200 -540 Descending FlightAware
01:52PM 33.6290 -79.0050 162° South 217 250 2,800 -1,080 Descending FlightAware
01:52PM 33.6040 -79.0000 171° South 213 245 2,400 -1,020 Descending FlightAware
01:53PM 33.5750 -78.9950 172° South 214 246 1,900 -600 Descending FlightAware
01:53PM 33.5560 -78.9910 170° South 220 253 1,900  Level FlightAware
01:54PM 33.5210 -78.9850 172° South 214 246 1,900  Level FlightAware
01:54PM 33.4960 -78.9800 171° South 214 246 1,900  Level FlightAware
01:55PM 33.4780 -78.9640 143° Southeast 200 230 1,900  Level FlightAware
01:55PM 33.4940 -78.9140 69° East 156 180 1,900 -120 Level FlightAware
01:56PM 33.5170 -78.8980 30° Northeast 156 180 1,800 -300 Descending FlightAware
01:57PM 33.5440 -78.8980 360° North 156 180 1,600 -240 Descending FlightAware
01:57PM 33.5620 -78.9000 355° North 174 200 1,600  Level FlightAware
01:57PM 33.5820 -78.9040 351° North 172 198 1,600 -540 Level FlightAware
02:00PM 33.6797 -78.9283 348° North  Level Estimated
02:00PM 33.6740 -78.9270 348° North 130 150 100  Level FlightAware
02:02PM 33.6667 -78.9167 140° Southeast  Level FlightAware Approximate
02:03PM 33.6797 -78.9283 140° Southeast  Level Estimated
02:04PM 33.6797 -78.9283 140° Southeast  Level Estimated
02:05PM 33.6797 -78.9283 140° Southeast  Level Estimated
02:06PM 33.6797 -78.9283 140° Southeast  Level Estimated